createdAt,value
2019-03-08T00:00:25.989Z,650.8
2019-03-08T00:01:28.427Z,651.2
2019-03-08T00:02:30.620Z,651.6
2019-03-08T00:03:32.532Z,651
2019-03-08T00:04:34.421Z,650.9
2019-03-08T00:05:36.568Z,651.6
2019-03-08T00:06:38.998Z,651.5
2019-03-08T00:07:41.423Z,650.6
2019-03-08T00:08:43.863Z,650.4
2019-03-08T00:09:46.860Z,651
2019-03-08T00:10:49.027Z,650.7
2019-03-08T00:11:51.639Z,650.3
2019-03-08T00:12:54.068Z,650.7
2019-03-08T00:13:56.237Z,651.5
2019-03-08T00:14:58.392Z,651.1
2019-03-08T00:16:00.561Z,651.2
2019-03-08T00:17:02.442Z,651.1
2019-03-08T00:18:04.601Z,651.2
2019-03-08T00:19:06.488Z,650.7
2019-03-08T00:20:08.655Z,651.1
2019-03-08T00:21:11.604Z,651.7
2019-03-08T00:22:14.063Z,651.5
2019-03-08T00:23:16.766Z,651
2019-03-08T00:24:19.195Z,650.9
2019-03-08T00:25:21.635Z,651.4
2019-03-08T00:26:24.061Z,651.6
2019-03-08T00:27:26.514Z,650.9
2019-03-08T00:28:28.973Z,651.2
2019-03-08T00:29:31.404Z,651
2019-03-08T00:30:33.829Z,650.9
2019-03-08T00:31:36.254Z,650.9
2019-03-08T00:32:38.718Z,650.8
2019-03-08T00:33:42.216Z,651
2019-03-08T00:34:44.812Z,651.1
2019-03-08T00:35:47.228Z,650.7
2019-03-08T00:36:49.658Z,650.7
2019-03-08T00:37:52.088Z,650.7
2019-03-08T00:38:54.521Z,650.5
2019-03-08T00:39:56.944Z,650.5
2019-03-08T00:40:59.384Z,650.1
2019-03-08T00:42:01.543Z,650.2
2019-03-08T00:43:03.962Z,649.5
2019-03-08T00:44:06.412Z,649.6
2019-03-08T00:45:09.743Z,649.8
2019-03-08T00:46:12.061Z,650
2019-03-08T00:47:14.487Z,650.1
2019-03-08T00:48:16.628Z,650.1
2019-03-08T00:49:18.773Z,649.9
2019-03-08T00:50:21.198Z,650
2019-03-08T00:51:23.617Z,650
2019-03-08T00:52:25.778Z,649.8
2019-03-08T00:53:28.200Z,649.7
2019-03-08T00:54:30.644Z,649.8
2019-03-08T00:55:33.070Z,649.7
2019-03-08T00:56:36.328Z,649.6
2019-03-08T00:57:38.864Z,649.8
2019-03-08T00:58:41.022Z,649.8
2019-03-08T00:59:43.447Z,650
2019-03-08T01:00:45.580Z,649.9
2019-03-08T01:01:47.756Z,650
2019-03-08T01:02:50.184Z,650.4
2019-03-08T01:03:52.362Z,650.2
2019-03-08T01:04:54.504Z,650
2019-03-08T01:05:56.940Z,650.3
2019-03-08T01:06:59.401Z,649.8
2019-03-08T01:08:02.511Z,649.8
2019-03-08T01:09:04.850Z,649.8
2019-03-08T01:10:06.998Z,650.4
2019-03-08T01:11:09.419Z,650.5
2019-03-08T01:12:11.848Z,650.1
2019-03-08T01:13:14.290Z,650.2
2019-03-08T01:14:16.727Z,650.3
2019-03-08T01:15:19.153Z,650.3
2019-03-08T01:16:21.044Z,650.1
2019-03-08T01:17:23.481Z,650
2019-03-08T01:18:25.628Z,650.1
2019-03-08T01:19:28.713Z,649.8
2019-03-08T01:20:31.342Z,649.5
2019-03-08T01:21:33.946Z,649.5
2019-03-08T01:22:36.095Z,649.2
2019-03-08T01:23:37.994Z,649.5
2019-03-08T01:24:40.424Z,648.8
2019-03-08T01:25:42.609Z,649.1
2019-03-08T01:26:45.030Z,649.2
2019-03-08T01:27:47.455Z,649
2019-03-08T01:28:49.901Z,648.9
2019-03-08T01:29:52.046Z,648.9
2019-03-08T01:30:54.543Z,649.4
2019-03-08T01:31:57.683Z,649.3
2019-03-08T01:33:00.313Z,649.1
2019-03-08T01:34:02.749Z,649.1
2019-03-08T01:35:05.193Z,649.1
2019-03-08T01:36:07.623Z,649.1
2019-03-08T01:37:10.050Z,649.1
2019-03-08T01:38:12.479Z,649.2
2019-03-08T01:39:14.910Z,649
2019-03-08T01:40:17.082Z,649.6
2019-03-08T01:41:19.503Z,649.2
2019-03-08T01:42:21.666Z,649.2
2019-03-08T01:43:24.784Z,649.4
2019-03-08T01:44:27.316Z,649.3
2019-03-08T01:45:29.736Z,649.2
2019-03-08T01:46:31.892Z,649.2
2019-03-08T01:47:34.318Z,649.2
2019-03-08T01:48:36.193Z,649.3
2019-03-08T01:49:38.644Z,649
2019-03-08T01:50:40.791Z,649.2
2019-03-08T01:51:43.215Z,649.3
2019-03-08T01:52:45.100Z,648.9
2019-03-08T01:53:47.528Z,648.6
2019-03-08T01:54:50.850Z,649.2
2019-03-08T01:55:52.909Z,648.9
2019-03-08T01:56:55.386Z,648.9
2019-03-08T01:57:57.258Z,648.7
2019-03-08T01:58:59.688Z,649
2019-03-08T02:00:01.846Z,649.3
2019-03-08T02:01:04.022Z,649.2
2019-03-08T02:02:05.887Z,649.6
2019-03-08T02:03:08.316Z,649.5
2019-03-08T02:04:10.466Z,649.5
2019-03-08T02:05:12.618Z,649.8
2019-03-08T02:06:16.693Z,650.5
2019-03-08T02:07:18.990Z,650.5
2019-03-08T02:08:21.272Z,650.7
2019-03-08T02:09:23.720Z,651.2
2019-03-08T02:10:26.143Z,651.5
2019-03-08T02:11:28.066Z,651.3
2019-03-08T02:12:29.976Z,651.2
2019-03-08T02:13:32.147Z,651.1
2019-03-08T02:14:34.584Z,651.3
2019-03-08T02:15:37.010Z,651.2
2019-03-08T02:16:39.166Z,651.1
2019-03-08T02:17:42.218Z,650.8
2019-03-08T02:18:44.925Z,650.6
2019-03-08T02:19:46.799Z,650.5
2019-03-08T02:20:48.931Z,650.3
2019-03-08T02:21:51.086Z,650
2019-03-08T02:22:53.514Z,650.1
2019-03-08T02:23:55.684Z,649.9
2019-03-08T02:24:57.574Z,649.5
2019-03-08T02:25:59.727Z,649.3
2019-03-08T02:27:02.174Z,649.8
2019-03-08T02:28:04.602Z,649.8
2019-03-08T02:29:07.753Z,649.6
2019-03-08T02:30:10.386Z,649.4
2019-03-08T02:31:12.287Z,649.2
2019-03-08T02:32:14.706Z,649.1
2019-03-08T02:33:17.138Z,649.2
2019-03-08T02:34:19.290Z,649
2019-03-08T02:35:21.720Z,649.2
2019-03-08T02:36:23.333Z,649.3
2019-03-08T02:37:25.763Z,649.2
2019-03-08T02:38:28.184Z,648.9
2019-03-08T02:39:30.335Z,649.1
2019-03-08T02:40:33.902Z,649.2
2019-03-08T02:41:36.472Z,648.9
2019-03-08T02:42:38.942Z,648.9
2019-03-08T02:43:40.847Z,648.8
2019-03-08T02:44:43.004Z,648.6
2019-03-08T02:45:45.427Z,648.9
2019-03-08T02:46:47.920Z,648.8
2019-03-08T02:47:49.844Z,648.9
2019-03-08T02:48:52.274Z,648.7
2019-03-08T02:49:54.704Z,648.5
2019-03-08T02:50:56.888Z,648.1
2019-03-08T02:51:59.816Z,647.7
2019-03-08T02:53:02.548Z,648
2019-03-08T02:54:05.268Z,647.5
2019-03-08T02:55:07.147Z,647.3
2019-03-08T02:56:09.564Z,647
2019-03-08T02:57:11.739Z,646.6
2019-03-08T02:58:14.153Z,646.5
2019-03-08T02:59:16.302Z,646.5
2019-03-08T03:00:18.737Z,646.4
2019-03-08T03:01:20.886Z,646
2019-03-08T03:02:23.312Z,645.9
2019-03-08T03:03:25.786Z,645.6
2019-03-08T03:04:28.926Z,645.6
2019-03-08T03:05:31.586Z,645.6
2019-03-08T03:06:34.014Z,645.5
2019-03-08T03:07:36.144Z,645.5
2019-03-08T03:08:38.013Z,645.3
2019-03-08T03:09:40.170Z,645.1
2019-03-08T03:10:42.592Z,645.3
2019-03-08T03:11:44.752Z,645.3
2019-03-08T03:12:46.912Z,645
2019-03-08T03:13:49.348Z,645.2
2019-03-08T03:14:51.774Z,644.8
2019-03-08T03:15:54.932Z,644.3
2019-03-08T03:16:57.122Z,644.5
2019-03-08T03:17:59.276Z,644.4
2019-03-08T03:19:01.690Z,644.3
2019-03-08T03:20:03.865Z,644.3
2019-03-08T03:21:06.291Z,644.1
2019-03-08T03:22:08.461Z,644.1
2019-03-08T03:23:10.901Z,643.9
2019-03-08T03:24:13.325Z,644.2
2019-03-08T03:25:15.763Z,644.1
2019-03-08T03:26:18.194Z,644.2
2019-03-08T03:27:20.802Z,644.1
2019-03-08T03:28:23.352Z,643.9
2019-03-08T03:29:25.508Z,644.2
2019-03-08T03:30:27.967Z,644.2
2019-03-08T03:31:30.123Z,643.9
2019-03-08T03:32:32.587Z,643.8
2019-03-08T03:33:35.064Z,643.8
2019-03-08T03:34:37.496Z,643.6
2019-03-08T03:35:39.918Z,643.5
2019-03-08T03:36:42.358Z,643.8
2019-03-08T03:37:44.803Z,644
2019-03-08T03:38:47.854Z,643.9
2019-03-08T03:39:50.418Z,643.7
2019-03-08T03:40:52.852Z,643.9
2019-03-08T03:41:55.292Z,643.9
2019-03-08T03:42:57.430Z,644
2019-03-08T03:43:59.858Z,643.5
2019-03-08T03:45:02.014Z,643.9
2019-03-08T03:46:04.490Z,644
2019-03-08T03:47:06.662Z,643.5
2019-03-08T03:48:09.115Z,643.8
2019-03-08T03:49:10.974Z,643.7
2019-03-08T03:50:14.288Z,643.5
2019-03-08T03:51:16.710Z,643.5
2019-03-08T03:52:18.966Z,643.2
2019-03-08T03:53:21.398Z,642.9
2019-03-08T03:54:23.542Z,643.4
2019-03-08T03:55:25.712Z,642.9
2019-03-08T03:56:28.130Z,643.1
2019-03-08T03:57:30.558Z,642.9
2019-03-08T03:58:32.990Z,642.6
2019-03-08T03:59:35.148Z,642.8
2019-03-08T04:00:37.295Z,642.6
2019-03-08T04:01:39.612Z,642.4
2019-03-08T04:02:42.554Z,642.7
2019-03-08T04:03:45.188Z,642.1
2019-03-08T04:04:47.618Z,641.7
2019-03-08T04:05:49.775Z,642.2
2019-03-08T04:06:52.184Z,641.9
2019-03-08T04:07:54.060Z,641.9
2019-03-08T04:08:56.480Z,642.1
2019-03-08T04:09:58.906Z,642.1
2019-03-08T04:11:01.037Z,641.9
2019-03-08T04:12:02.624Z,642
2019-03-08T04:13:04.850Z,641.9
2019-03-08T04:14:07.456Z,642.4
2019-03-08T04:15:10.130Z,642.3
2019-03-08T04:16:12.555Z,641.6
2019-03-08T04:17:14.975Z,641.5
2019-03-08T04:18:17.396Z,642
2019-03-08T04:19:19.832Z,642
2019-03-08T04:20:21.992Z,642.2
2019-03-08T04:21:24.162Z,642.1
2019-03-08T04:22:26.080Z,641.6
2019-03-08T04:23:27.965Z,641.7
2019-03-08T04:24:30.782Z,642
2019-03-08T04:25:33.354Z,641.6
2019-03-08T04:26:35.788Z,641.5
2019-03-08T04:27:38.205Z,641.4
2019-03-08T04:28:40.362Z,641.6
2019-03-08T04:29:42.802Z,641.3
2019-03-08T04:30:45.431Z,640.9
2019-03-08T04:31:47.877Z,641.2
2019-03-08T04:32:50.368Z,640.7
2019-03-08T04:33:52.260Z,641.1
2019-03-08T04:34:54.684Z,641
2019-03-08T04:35:57.282Z,641.1
2019-03-08T04:36:59.678Z,641.1
2019-03-08T04:38:01.587Z,641
2019-03-08T04:39:04.016Z,640.6
2019-03-08T04:40:06.428Z,640.4
2019-03-08T04:41:08.857Z,640.1
2019-03-08T04:42:11.279Z,639.7
2019-03-08T04:43:13.746Z,639.9
2019-03-08T04:44:16.178Z,639.7
2019-03-08T04:45:18.374Z,639.7
2019-03-08T04:46:20.820Z,640.3
2019-03-08T04:47:23.571Z,639.6
2019-03-08T04:48:25.823Z,639.6
2019-03-08T04:49:28.490Z,640.2
2019-03-08T04:50:30.931Z,639.9
2019-03-08T04:51:33.356Z,639.2
2019-03-08T04:52:34.951Z,639.1
2019-03-08T04:53:37.128Z,639.5
2019-03-08T04:54:39.268Z,639.3
2019-03-08T04:55:41.430Z,639.1
2019-03-08T04:56:43.605Z,639.2
2019-03-08T04:57:46.028Z,638.8
2019-03-08T04:58:48.970Z,639
2019-03-08T04:59:51.647Z,639.1
2019-03-08T05:00:54.006Z,638.8
2019-03-08T05:01:56.440Z,638.5
2019-03-08T05:02:58.874Z,638.7
2019-03-08T05:04:01.031Z,638.7
2019-03-08T05:05:03.479Z,638.5
2019-03-08T05:06:05.907Z,638.3
2019-03-08T05:07:08.061Z,638.5
2019-03-08T05:08:10.491Z,638.2
2019-03-08T05:09:12.639Z,638
2019-03-08T05:10:15.526Z,637.9
2019-03-08T05:11:18.218Z,638.1
2019-03-08T05:12:20.882Z,638.2
2019-03-08T05:13:23.042Z,638
2019-03-08T05:14:25.546Z,637.7
2019-03-08T05:15:27.990Z,637.2
2019-03-08T05:16:30.433Z,637.7
2019-03-08T05:17:32.074Z,637.8
2019-03-08T05:18:34.784Z,636.9
2019-03-08T05:19:37.248Z,637
2019-03-08T05:20:39.721Z,636.5
2019-03-08T05:21:42.075Z,636.5
2019-03-08T05:22:44.909Z,636.9
2019-03-08T05:23:47.317Z,636.6
2019-03-08T05:24:49.445Z,636.7
2019-03-08T05:25:51.886Z,637
2019-03-08T05:26:53.772Z,636.4
2019-03-08T05:27:56.194Z,636.4
2019-03-08T05:28:58.059Z,635.7
2019-03-08T05:30:00.482Z,635.7
2019-03-08T05:31:02.650Z,635.8
2019-03-08T05:32:04.557Z,635.9
2019-03-08T05:33:07.541Z,635.6
2019-03-08T05:34:10.012Z,635.5
2019-03-08T05:35:12.700Z,635.6
2019-03-08T05:36:14.859Z,635.7
2019-03-08T05:37:17.645Z,635.6
2019-03-08T05:38:20.158Z,635.7
2019-03-08T05:39:22.598Z,635.4
2019-03-08T05:40:25.023Z,635.6
2019-03-08T05:41:26.889Z,635.6
2019-03-08T05:42:29.317Z,635.4
2019-03-08T05:43:31.744Z,635.5
2019-03-08T05:44:34.697Z,635.8
2019-03-08T05:45:36.343Z,635.3
2019-03-08T05:46:38.789Z,635.1
2019-03-08T05:47:40.675Z,634.9
2019-03-08T05:48:42.822Z,634.9
2019-03-08T05:49:45.278Z,634.6
2019-03-08T05:50:47.421Z,635.1
2019-03-08T05:51:49.851Z,635
2019-03-08T05:52:51.996Z,635.2
2019-03-08T05:53:54.150Z,635.1
2019-03-08T05:54:56.575Z,634.9
2019-03-08T05:55:59.556Z,634.5
2019-03-08T05:57:01.609Z,633.9
2019-03-08T05:58:04.031Z,634.1
2019-03-08T05:59:06.455Z,633.6
2019-03-08T06:00:08.591Z,633.9
2019-03-08T06:01:10.753Z,633.4
2019-03-08T06:02:12.616Z,633.6
2019-03-08T06:03:14.756Z,633.6
2019-03-08T06:04:17.210Z,633.5
2019-03-08T06:05:19.383Z,633.1
2019-03-08T06:06:21.961Z,632.6
2019-03-08T06:07:24.642Z,633
2019-03-08T06:08:27.356Z,632.6
2019-03-08T06:09:29.541Z,633
2019-03-08T06:10:31.983Z,632.7
2019-03-08T06:11:34.404Z,632.7
2019-03-08T06:12:36.838Z,632.8
2019-03-08T06:13:38.711Z,631.8
2019-03-08T06:14:40.869Z,632.1
2019-03-08T06:15:42.753Z,632.2
2019-03-08T06:16:44.899Z,632.1
2019-03-08T06:17:47.964Z,631.8
2019-03-08T06:18:50.594Z,631.4
2019-03-08T06:19:53.030Z,631.4
2019-03-08T06:20:55.471Z,630.6
2019-03-08T06:21:57.638Z,631.3
2019-03-08T06:22:59.791Z,631.6
2019-03-08T06:24:01.692Z,631.1
2019-03-08T06:25:04.130Z,631.3
2019-03-08T06:26:06.578Z,631.2
2019-03-08T06:27:08.719Z,630.2
2019-03-08T06:28:11.186Z,630.4
2019-03-08T06:29:14.529Z,630.1
2019-03-08T06:30:17.213Z,630.3
2019-03-08T06:31:19.657Z,630
2019-03-08T06:32:21.815Z,629.2
2019-03-08T06:33:24.257Z,629.6
2019-03-08T06:34:26.677Z,629.6
2019-03-08T06:35:28.589Z,629.7
2019-03-08T06:36:31.025Z,629.6
2019-03-08T06:37:33.175Z,629.4
2019-03-08T06:38:35.613Z,629.3
2019-03-08T06:39:38.344Z,629.1
2019-03-08T06:40:40.992Z,629.1
2019-03-08T06:41:43.407Z,629.3
2019-03-08T06:42:45.272Z,628.9
2019-03-08T06:43:47.145Z,629
2019-03-08T06:44:49.592Z,629
2019-03-08T06:45:52.132Z,628.3
2019-03-08T06:46:54.415Z,628.6
2019-03-08T06:47:57.217Z,628.4
2019-03-08T06:48:59.102Z,628.7
2019-03-08T06:50:01.749Z,628.3
2019-03-08T06:51:04.334Z,628
2019-03-08T06:52:06.555Z,628
2019-03-08T06:53:09.011Z,627.9
2019-03-08T06:54:11.159Z,627.7
2019-03-08T06:55:13.301Z,627.5
2019-03-08T06:56:15.467Z,628
2019-03-08T06:57:17.626Z,627.4
2019-03-08T06:58:20.059Z,626.9
2019-03-08T06:59:22.505Z,626.5
2019-03-08T07:00:24.947Z,626
2019-03-08T07:01:27.132Z,626.3
2019-03-08T07:02:31.989Z,626
2019-03-08T07:03:33.869Z,625.3
2019-03-08T07:04:36.361Z,626
2019-03-08T07:05:38.810Z,625.6
2019-03-08T07:06:40.967Z,625.6
2019-03-08T07:07:43.115Z,625
2019-03-08T07:08:45.279Z,625.1
2019-03-08T07:09:47.213Z,625
2019-03-08T07:10:49.625Z,625
2019-03-08T07:11:52.070Z,624.7
2019-03-08T07:14:00.814Z,624.2
2019-03-08T07:15:03.329Z,624
2019-03-08T07:17:10.751Z,624.1
2019-03-08T07:18:15.001Z,623.8
2019-03-08T07:19:17.164Z,623.9
2019-03-08T07:20:19.335Z,624.2
2019-03-08T07:21:21.763Z,623
2019-03-08T07:22:23.899Z,623.3
2019-03-08T07:24:31.327Z,622.1
2019-03-08T07:25:33.748Z,622.7
2019-03-08T07:26:36.634Z,623
2019-03-08T07:27:39.280Z,622.7
2019-03-08T07:28:41.919Z,622.8
2019-03-08T07:29:44.345Z,622.2
2019-03-08T07:30:46.769Z,621.8
2019-03-08T07:31:49.232Z,621.8
2019-03-08T07:32:51.378Z,621.5
2019-03-08T07:33:55.478Z,621.4
2019-03-08T07:34:57.911Z,621.2
2019-03-08T07:36:00.331Z,620.7
2019-03-08T07:37:02.760Z,621.4
2019-03-08T07:38:05.191Z,620.6
2019-03-08T07:39:08.158Z,620.4
2019-03-08T07:40:10.748Z,620.9
2019-03-08T07:41:13.177Z,620.1
2019-03-08T07:42:29.999Z,620.3
2019-03-08T07:43:32.451Z,621.1
2019-03-08T07:44:34.890Z,621.1
2019-03-08T07:45:36.775Z,620.3
2019-03-08T07:46:39.204Z,619.4
2019-03-08T07:47:41.640Z,619.5
2019-03-08T07:48:43.649Z,619.3
2019-03-08T07:49:46.124Z,619.9
2019-03-08T07:50:48.945Z,619
2019-03-08T07:51:51.118Z,619.2
2019-03-08T07:52:53.857Z,619.2
2019-03-08T07:53:56.692Z,618.8
2019-03-08T07:54:59.327Z,619
2019-03-08T07:56:01.768Z,618.9
2019-03-08T07:57:04.195Z,618.4
2019-03-08T07:58:06.642Z,618.2
2019-03-08T07:59:08.807Z,617.8
2019-03-08T08:00:11.231Z,618.9
2019-03-08T08:01:13.669Z,618.6
2019-03-08T08:02:15.552Z,618.1
2019-03-08T08:03:17.743Z,618.1
2019-03-08T08:04:20.182Z,617.2
2019-03-08T08:05:22.995Z,617.5
2019-03-08T08:06:25.358Z,617.1
2019-03-08T08:07:27.786Z,617.1
2019-03-08T08:08:30.220Z,617.8
2019-03-08T08:09:32.672Z,617.4
2019-03-08T08:10:34.562Z,617
2019-03-08T08:11:36.448Z,616.6
2019-03-08T08:12:38.903Z,616.3
2019-03-08T08:13:41.344Z,614.8
2019-03-08T08:14:43.788Z,616
2019-03-08T08:15:47.174Z,615.2
2019-03-08T08:16:50.209Z,615.4
2019-03-08T08:17:52.730Z,615.2
2019-03-08T08:18:54.887Z,614.7
2019-03-08T08:19:57.311Z,614.9
2019-03-08T08:21:01.106Z,614.7
2019-03-08T08:22:03.667Z,614.5
2019-03-08T08:23:06.095Z,614.4
2019-03-08T08:24:08.248Z,614.1
2019-03-08T08:25:10.416Z,613.4
2019-03-08T08:26:12.045Z,612.8
2019-03-08T08:27:14.225Z,613.7
2019-03-08T08:28:16.540Z,613.6
2019-03-08T08:29:19.632Z,613.3
2019-03-08T08:30:22.193Z,613.4
2019-03-08T08:31:24.379Z,613.3
2019-03-08T08:32:26.827Z,613.2
2019-03-08T08:33:28.754Z,613.1
2019-03-08T08:34:31.186Z,613.3
2019-03-08T08:35:33.058Z,612.1
2019-03-08T08:36:35.499Z,612
2019-03-08T08:37:37.932Z,611.7
2019-03-08T08:38:40.366Z,612.2
2019-03-08T08:39:43.018Z,611.9
2019-03-08T08:40:46.169Z,612.1
2019-03-08T08:41:48.714Z,612.5
2019-03-08T08:42:50.853Z,612.9
2019-03-08T08:43:53.280Z,612.8
2019-03-08T08:44:55.153Z,612.5
2019-03-08T08:45:57.342Z,611.6
2019-03-08T08:46:59.508Z,611
2019-03-08T08:48:01.994Z,610.7
2019-03-08T08:49:04.164Z,610.7
2019-03-08T08:50:06.609Z,610.5
2019-03-08T08:51:08.762Z,610.6
2019-03-08T08:52:11.824Z,609.8
2019-03-08T08:53:14.235Z,610.6
2019-03-08T08:54:16.657Z,610.6
2019-03-08T08:55:18.815Z,609.1
2019-03-08T08:56:21.258Z,609.9
2019-03-08T08:57:23.407Z,609.4
2019-03-08T08:58:25.602Z,609.9
2019-03-08T08:59:28.058Z,609.5
2019-03-08T09:00:29.951Z,609.7
2019-03-08T09:01:31.844Z,609.6
2019-03-08T09:02:34.293Z,610.1
2019-03-08T09:03:37.312Z,609.4
2019-03-08T09:04:39.973Z,609.9
2019-03-08T09:05:42.126Z,609.9
2019-03-08T09:06:44.309Z,609.3
2019-03-08T09:07:46.470Z,609.5
2019-03-08T09:08:48.873Z,609.2
2019-03-08T09:09:50.738Z,608.9
2019-03-08T09:10:53.168Z,608.6
2019-03-08T09:11:55.354Z,609.1
2019-03-08T09:12:57.549Z,609.4
2019-03-08T09:14:00.105Z,607.8
2019-03-08T09:15:02.766Z,607.9
2019-03-08T09:16:05.056Z,608
2019-03-08T09:17:07.203Z,608.8
2019-03-08T09:18:09.073Z,608.2
2019-03-08T09:19:10.980Z,608.3
2019-03-08T09:20:13.414Z,608.1
2019-03-08T09:21:15.588Z,608.7
2019-03-08T09:22:17.745Z,608.7
2019-03-08T09:23:19.913Z,608.7
2019-03-08T09:24:22.060Z,609.4
2019-03-08T09:25:24.882Z,608.8
2019-03-08T09:26:27.759Z,608.2
2019-03-08T09:27:30.437Z,607.1
2019-03-08T09:28:32.880Z,607.7
2019-03-08T09:30:40.284Z,606.9
2019-03-08T09:31:42.430Z,606.9
2019-03-08T09:32:45.096Z,607.3
2019-03-08T09:33:47.303Z,606.6
2019-03-08T09:34:49.792Z,606.6
2019-03-08T09:35:52.259Z,605.6
2019-03-08T09:36:54.130Z,606.9
2019-03-08T09:37:57.439Z,606.7
2019-03-08T09:38:59.930Z,605.8
2019-03-08T09:40:02.099Z,605.9
2019-03-08T09:41:04.538Z,605.7
2019-03-08T09:42:06.702Z,606
2019-03-08T09:43:08.856Z,606.5
2019-03-08T09:44:11.014Z,605.5
2019-03-08T09:45:13.170Z,605.3
2019-03-08T09:46:15.320Z,605.4
2019-03-08T09:47:17.487Z,605.6
2019-03-08T09:48:19.756Z,604.6
2019-03-08T09:49:23.266Z,604.3
2019-03-08T09:50:25.951Z,605.4
2019-03-08T09:51:28.247Z,605.3
2019-03-08T09:52:32.442Z,604.5
2019-03-08T09:53:35.003Z,604.8
2019-03-08T09:54:37.418Z,604.7
2019-03-08T09:55:39.835Z,604.1
2019-03-08T09:56:42.270Z,604.7
2019-03-08T09:57:44.440Z,604
2019-03-08T09:58:46.874Z,603.9
2019-03-08T09:59:48.757Z,604
2019-03-08T10:00:50.941Z,604.1
2019-03-08T10:01:53.668Z,604.3
2019-03-08T10:02:56.123Z,603.5
2019-03-08T10:03:58.272Z,603.9
2019-03-08T10:05:00.894Z,603.8
2019-03-08T10:06:03.048Z,603.9
2019-03-08T10:07:05.495Z,604.2
2019-03-08T10:08:07.644Z,604.2
2019-03-08T10:09:10.076Z,603.8
2019-03-08T10:10:12.507Z,604.2
2019-03-08T10:11:14.664Z,604.6
2019-03-08T10:12:17.101Z,603.8
2019-03-08T10:13:20.179Z,603.7
2019-03-08T10:14:22.524Z,603.1
2019-03-08T10:15:24.947Z,603.3
2019-03-08T10:16:26.821Z,603.3
2019-03-08T10:17:29.250Z,603.7
2019-03-08T10:18:31.672Z,604.2
2019-03-08T10:19:33.837Z,603
2019-03-08T10:20:35.995Z,603.2
2019-03-08T10:21:38.172Z,603.4
2019-03-08T10:22:40.364Z,603.2
2019-03-08T10:23:42.502Z,602.6
2019-03-08T10:24:45.776Z,603.1
2019-03-08T10:25:48.150Z,602.2
2019-03-08T10:26:50.307Z,602.3
2019-03-08T10:27:52.738Z,602.4
2019-03-08T10:28:55.218Z,601.7
2019-03-08T10:29:57.649Z,602.1
2019-03-08T10:31:00.098Z,602.3
2019-03-08T10:32:02.512Z,601
2019-03-08T10:33:04.674Z,600.9
2019-03-08T10:34:07.112Z,601.4
2019-03-08T10:35:09.296Z,600.4
2019-03-08T10:36:12.682Z,600.8
2019-03-08T10:37:15.323Z,600.5
2019-03-08T10:39:22.739Z,600.6
2019-03-08T10:40:24.907Z,599.4
2019-03-08T10:41:27.334Z,600
2019-03-08T10:42:29.757Z,599.7
2019-03-08T10:43:32.192Z,600.8
2019-03-08T10:44:34.629Z,600.3
2019-03-08T10:45:36.518Z,600.4
2019-03-08T10:46:38.962Z,600
2019-03-08T10:47:41.558Z,600.6
2019-03-08T10:48:44.556Z,599.7
2019-03-08T10:50:53.098Z,599.9
2019-03-08T10:51:55.257Z,600.3
2019-03-08T10:52:57.392Z,599.7
2019-03-08T10:55:04.518Z,599.7
2019-03-08T10:56:06.939Z,599.8
2019-03-08T10:57:09.386Z,598.4
2019-03-08T10:58:11.806Z,600
2019-03-08T10:59:14.276Z,599.5
2019-03-08T11:00:16.774Z,599.5
2019-03-08T11:01:19.470Z,600.3
2019-03-08T11:02:21.841Z,599.1
2019-03-08T11:03:24.004Z,599.2
2019-03-08T11:04:26.427Z,598.2
2019-03-08T11:05:28.854Z,599.1
2019-03-08T11:06:31.001Z,598.4
2019-03-08T11:07:33.436Z,598.6
2019-03-08T11:08:35.870Z,599.1
2019-03-08T11:09:38.005Z,599.9
2019-03-08T11:10:40.436Z,600
2019-03-08T11:11:42.863Z,599.8
2019-03-08T11:12:45.862Z,599.6
2019-03-08T11:13:47.968Z,599.9
2019-03-08T11:14:50.117Z,599.4
2019-03-08T11:15:52.285Z,599.5
2019-03-08T11:16:54.719Z,599.8
2019-03-08T11:17:57.142Z,599.2
2019-03-08T11:19:08.274Z,598.3
2019-03-08T11:20:05.946Z,598.7
2019-03-08T11:21:08.381Z,598.7
2019-03-08T11:22:10.538Z,599
2019-03-08T11:23:12.973Z,599
2019-03-08T11:24:15.598Z,599
2019-03-08T11:25:18.459Z,598.2
2019-03-08T11:26:20.956Z,598.6
2019-03-08T11:27:23.106Z,598.5
2019-03-08T11:28:25.535Z,599.2
2019-03-08T11:29:27.693Z,598.6
2019-03-08T11:30:30.120Z,598.9
2019-03-08T11:31:32.552Z,598.6
2019-03-08T11:32:34.434Z,599
2019-03-08T11:33:36.876Z,599.4
2019-03-08T11:34:39.559Z,598.4
2019-03-08T11:35:41.727Z,598.6
2019-03-08T11:36:45.052Z,598.5
2019-03-08T11:37:46.880Z,598.7
2019-03-08T11:38:49.325Z,599.3
2019-03-08T11:39:51.491Z,598.9
2019-03-08T11:40:55.399Z,599
2019-03-08T11:41:57.398Z,598.7
2019-03-08T11:42:59.819Z,599.5
2019-03-08T11:44:01.976Z,599.1
2019-03-08T11:45:04.410Z,598.8
2019-03-08T11:46:06.858Z,598.9
2019-03-08T11:47:09.290Z,599.4
2019-03-08T11:48:12.390Z,599.4
2019-03-08T11:49:14.643Z,599.6
2019-03-08T11:50:16.808Z,599.7
2019-03-08T11:51:18.684Z,599.9
2019-03-08T11:52:21.108Z,599.8
2019-03-08T11:53:23.267Z,599.6
2019-03-08T11:54:25.701Z,599.7
2019-03-08T11:55:28.132Z,600.4
2019-03-08T11:56:30.278Z,600.4
2019-03-08T11:57:32.712Z,600.3
2019-03-08T11:58:35.140Z,600.7
2019-03-08T11:59:38.042Z,600.4
2019-03-08T12:00:40.448Z,599.5
2019-03-08T12:01:42.617Z,600.5
2019-03-08T12:02:45.049Z,599.8
2019-03-08T12:03:47.207Z,600.3
2019-03-08T12:04:49.642Z,599.9
2019-03-08T12:05:52.076Z,599.6
2019-03-08T12:06:54.502Z,599.3
2019-03-08T12:07:56.939Z,599.4
2019-03-08T12:08:59.086Z,598.5
2019-03-08T12:10:01.466Z,599.2
2019-03-08T12:11:03.888Z,599.7
2019-03-08T12:12:07.167Z,600.1
2019-03-08T12:13:09.877Z,599.8
2019-03-08T12:14:12.322Z,599.5
2019-03-08T12:15:16.161Z,599.1
2019-03-08T12:16:20.527Z,598.8
2019-03-08T12:17:22.683Z,598.2
2019-03-08T12:18:24.841Z,598.6
2019-03-08T12:19:26.990Z,598.1
2019-03-08T12:20:29.451Z,597.9
2019-03-08T12:21:31.609Z,598.3
2019-03-08T12:22:34.087Z,597.6
2019-03-08T12:23:36.390Z,598.3
2019-03-08T12:24:38.799Z,597.3
2019-03-08T12:25:42.679Z,597.8
2019-03-08T12:26:44.879Z,597.5
2019-03-08T12:27:47.346Z,598.8
2019-03-08T12:28:49.488Z,598.2
2019-03-08T12:29:51.655Z,597.7
2019-03-08T12:30:54.089Z,597.9
2019-03-08T12:31:55.974Z,597.7
2019-03-08T12:32:58.130Z,597.3
2019-03-08T12:33:59.988Z,597.7
2019-03-08T12:35:02.193Z,597.9
2019-03-08T12:36:07.127Z,597.9
2019-03-08T12:37:09.746Z,597.8
2019-03-08T12:38:11.903Z,598.2
2019-03-08T12:39:14.068Z,598.1
2019-03-08T12:40:16.357Z,598.6
2019-03-08T12:41:18.698Z,598.3
2019-03-08T12:42:20.695Z,598.4
2019-03-08T12:43:23.017Z,598.1
2019-03-08T12:44:25.062Z,598.3
2019-03-08T12:45:27.634Z,598.5
2019-03-08T12:46:29.917Z,599.2
2019-03-08T12:47:32.670Z,598.6
2019-03-08T12:48:35.416Z,599.2
2019-03-08T12:49:37.860Z,598.4
2019-03-08T12:50:40.319Z,599.2
2019-03-08T12:51:42.744Z,598.8
2019-03-08T12:52:44.900Z,598.8
2019-03-08T12:53:47.064Z,598.7
2019-03-08T12:54:48.693Z,598.5
2019-03-08T12:55:51.120Z,599.3
2019-03-08T12:56:53.545Z,598.9
2019-03-08T12:57:55.982Z,599.2
2019-03-08T12:58:58.408Z,599
2019-03-08T13:00:15.498Z,599.2
2019-03-08T13:01:17.666Z,599.1
2019-03-08T13:02:20.922Z,599.7
2019-03-08T13:03:22.963Z,599.4
2019-03-08T13:04:24.899Z,598.8
2019-03-08T13:05:27.333Z,598.9
2019-03-08T13:06:29.500Z,599.3
2019-03-08T13:07:31.411Z,599.2
2019-03-08T13:08:33.876Z,599.6
2019-03-08T13:09:36.318Z,599.9
2019-03-08T13:10:38.849Z,600.3
2019-03-08T13:11:41.387Z,599.8
2019-03-08T13:12:43.644Z,599.6
2019-03-08T13:13:46.185Z,599.8
2019-03-08T13:14:49.259Z,599.5
2019-03-08T13:15:51.663Z,599.1
2019-03-08T13:16:54.103Z,599.4
2019-03-08T13:17:56.285Z,598.8
2019-03-08T13:18:58.711Z,599.3
2019-03-08T13:20:01.289Z,598.8
2019-03-08T13:21:03.457Z,598.4
2019-03-08T13:22:05.888Z,598.6
2019-03-08T13:23:08.319Z,598.8
2019-03-08T13:24:10.760Z,598.4
2019-03-08T13:25:12.919Z,598.1
2019-03-08T13:26:15.960Z,598.6
2019-03-08T13:27:33.209Z,597.4
2019-03-08T13:28:36.410Z,597.5
2019-03-08T13:29:38.467Z,597.7
2019-03-08T13:30:40.910Z,598.3
2019-03-08T13:31:42.799Z,597.9
2019-03-08T13:32:44.965Z,598.1
2019-03-08T13:33:47.391Z,597.9
2019-03-08T13:34:49.845Z,597.9
2019-03-08T13:35:52.268Z,597.9
2019-03-08T13:36:54.428Z,597.1